createdAt,value
2023-01-31T00:00:39.093Z,2.80
2023-01-31T00:03:07.492Z,3.67
2023-01-31T00:05:35.888Z,4.10
2023-01-31T00:08:04.344Z,3.20
2023-01-31T00:10:32.847Z,3.43
2023-01-31T00:13:01.217Z,3.17
2023-01-31T00:15:31.056Z,3.03
2023-01-31T00:17:59.838Z,3.37
2023-01-31T00:20:28.130Z,3.53
2023-01-31T00:22:56.462Z,3.63
2023-01-31T00:25:24.798Z,2.93
2023-01-31T00:27:53.172Z,3.53
2023-01-31T00:30:21.575Z,4.17
2023-01-31T00:32:51.242Z,3.67
2023-01-31T00:35:19.873Z,3.40
2023-01-31T00:37:48.355Z,4.50
2023-01-31T00:40:16.804Z,3.43
2023-01-31T00:42:45.437Z,4.10
2023-01-31T00:45:13.802Z,3.53
2023-01-31T00:47:42.147Z,3.53
2023-01-31T00:50:15.549Z,3.67
2023-01-31T00:52:43.989Z,4.17
2023-01-31T00:55:12.392Z,4.37
2023-01-31T00:57:40.782Z,5.03
2023-01-31T01:00:09.712Z,3.40
2023-01-31T01:02:38.162Z,4.27
2023-01-31T01:05:06.849Z,4.60
2023-01-31T01:07:36.641Z,4.17
2023-01-31T01:10:05.304Z,4.43
2023-01-31T01:12:34.419Z,4.73
2023-01-31T01:15:03.360Z,4.50
2023-01-31T01:17:31.726Z,4.77
2023-01-31T01:20:03.763Z,4.63
2023-01-31T01:22:32.239Z,4.30
2023-01-31T01:25:01.960Z,4.67
2023-01-31T01:27:30.377Z,5.60
2023-01-31T01:29:59.108Z,5.57
2023-01-31T01:32:27.588Z,6.57
2023-01-31T01:34:56.104Z,6.67
2023-01-31T01:37:24.574Z,5.70
2023-01-31T01:39:53.223Z,5.77
2023-01-31T01:42:24.384Z,6.10
2023-01-31T01:44:53.484Z,5.60
2023-01-31T01:47:24.123Z,6.03
2023-01-31T01:49:53.426Z,5.73
2023-01-31T01:52:21.733Z,6.30
2023-01-31T01:54:54.636Z,5.40
2023-01-31T01:57:25.633Z,6.00
2023-01-31T01:59:55.940Z,6.97
2023-01-31T02:02:24.407Z,6.33
2023-01-31T02:04:52.825Z,5.83
2023-01-31T02:07:21.417Z,6.80
2023-01-31T02:09:50.911Z,6.30
2023-01-31T02:12:19.405Z,6.17
2023-01-31T02:14:49.141Z,6.43
2023-01-31T02:17:18.207Z,6.53
2023-01-31T02:19:49.018Z,6.07
2023-01-31T02:22:18.864Z,5.83
2023-01-31T02:24:56.976Z,6.80
2023-01-31T02:27:35.070Z,6.83
2023-01-31T02:30:22.165Z,5.47
2023-01-31T02:32:53.033Z,6.67
2023-01-31T02:35:24.855Z,6.53
2023-01-31T02:37:56.128Z,7.63
2023-01-31T02:40:26.669Z,7.10
2023-01-31T02:42:56.255Z,7.47
2023-01-31T02:45:24.818Z,6.97
2023-01-31T02:47:58.686Z,8.07
2023-01-31T02:50:28.085Z,6.80
2023-01-31T02:52:59.078Z,7.40
2023-01-31T02:55:51.358Z,7.73
2023-01-31T02:58:19.891Z,7.60
2023-01-31T03:00:48.313Z,7.63
2023-01-31T03:03:20.871Z,7.10
2023-01-31T03:06:08.032Z,6.10
2023-01-31T03:08:36.651Z,7.77
2023-01-31T03:11:05.458Z,6.63
2023-01-31T03:13:37.047Z,6.43
2023-01-31T03:16:26.666Z,6.70
2023-01-31T03:18:58.624Z,6.27
2023-01-31T03:21:27.982Z,7.13
2023-01-31T03:23:56.842Z,6.47
2023-01-31T03:26:25.544Z,6.27
2023-01-31T03:28:57.197Z,7.50
2023-01-31T03:31:26.673Z,6.03
2023-01-31T03:33:57.968Z,6.53
2023-01-31T03:36:31.045Z,5.83
2023-01-31T03:39:00.408Z,6.03
2023-01-31T03:41:30.077Z,6.33
2023-01-31T03:44:01.379Z,4.97
2023-01-31T03:46:30.243Z,5.90
2023-01-31T03:49:00.103Z,6.10
2023-01-31T03:51:29.603Z,6.03
2023-01-31T03:53:58.411Z,5.93
2023-01-31T03:56:27.588Z,6.00
2023-01-31T03:58:56.730Z,4.83
2023-01-31T04:01:25.222Z,4.07
2023-01-31T04:03:54.012Z,5.10
2023-01-31T04:06:23.855Z,4.17
2023-01-31T04:08:58.083Z,4.20
2023-01-31T04:11:38.137Z,4.47
2023-01-31T04:14:06.597Z,4.30
2023-01-31T04:16:35.153Z,4.77
2023-01-31T04:19:03.658Z,5.00
2023-01-31T04:21:33.737Z,4.13
2023-01-31T04:24:04.205Z,4.63
2023-01-31T04:26:32.876Z,5.27
2023-01-31T04:29:01.697Z,4.47
2023-01-31T04:31:30.170Z,5.97
2023-01-31T04:33:59.915Z,3.93
2023-01-31T04:36:28.295Z,4.60
2023-01-31T04:38:58.091Z,4.33
2023-01-31T04:41:26.733Z,4.57
2023-01-31T04:43:55.221Z,4.23
2023-01-31T04:46:23.827Z,4.50
2023-01-31T04:48:52.308Z,3.93
2023-01-31T04:51:20.827Z,4.07
2023-01-31T04:53:49.274Z,4.50
2023-01-31T04:56:19.160Z,3.77
2023-01-31T04:58:48.450Z,3.90
2023-01-31T05:01:16.988Z,4.13
2023-01-31T05:03:45.460Z,4.73
2023-01-31T05:06:13.832Z,3.80
2023-01-31T05:08:43.824Z,3.93
2023-01-31T05:11:12.344Z,4.13
2023-01-31T05:13:43.076Z,4.30
2023-01-31T05:16:11.883Z,4.47
2023-01-31T05:18:40.350Z,4.70
2023-01-31T05:21:09.017Z,4.60
2023-01-31T05:23:37.517Z,3.90
2023-01-31T05:26:06.101Z,4.97
2023-01-31T05:28:34.482Z,4.87
2023-01-31T05:31:04.873Z,4.23
2023-01-31T05:33:33.563Z,4.67
2023-01-31T05:36:02.403Z,4.93
2023-01-31T05:38:31.339Z,3.83
2023-01-31T05:40:59.859Z,4.23
2023-01-31T05:43:36.302Z,3.60
2023-01-31T05:46:06.828Z,4.00
2023-01-31T05:48:35.365Z,3.37
2023-01-31T05:51:03.924Z,4.67
2023-01-31T05:53:32.524Z,4.77
2023-01-31T05:56:01.467Z,3.90
2023-01-31T05:58:30.267Z,4.93
2023-01-31T06:00:58.971Z,4.07
2023-01-31T06:03:28.983Z,3.80
2023-01-31T06:05:57.594Z,5.07
2023-01-31T06:08:26.054Z,4.33
2023-01-31T06:10:54.633Z,5.10
2023-01-31T06:13:30.129Z,3.80
2023-01-31T06:15:59.334Z,3.93
2023-01-31T06:18:29.202Z,3.83
2023-01-31T06:20:57.728Z,3.37
2023-01-31T06:23:26.439Z,4.43
2023-01-31T06:25:55.328Z,3.67
2023-01-31T06:28:33.042Z,3.23
2023-01-31T06:31:01.682Z,3.80
2023-01-31T06:33:45.492Z,2.53
2023-01-31T06:36:18.405Z,2.50
2023-01-31T06:38:47.727Z,3.80
2023-01-31T06:41:16.381Z,2.80
2023-01-31T06:43:44.913Z,3.73
2023-01-31T06:46:13.579Z,2.80
2023-01-31T06:48:43.974Z,3.50
2023-01-31T06:51:12.529Z,2.90
2023-01-31T06:53:40.940Z,3.40
2023-01-31T06:56:09.812Z,3.00
2023-01-31T06:58:38.308Z,3.17
2023-01-31T07:01:11.096Z,3.43
2023-01-31T07:03:39.567Z,3.23
2023-01-31T07:06:09.714Z,2.60
2023-01-31T07:08:38.172Z,3.80
2023-01-31T07:11:06.975Z,3.47
2023-01-31T07:13:35.564Z,3.77
2023-01-31T07:16:04.057Z,3.27
2023-01-31T07:18:32.782Z,2.83
2023-01-31T07:21:01.216Z,3.00
2023-01-31T07:23:31.172Z,3.13
2023-01-31T07:26:02.213Z,3.07
2023-01-31T07:28:39.660Z,3.27
2023-01-31T07:31:10.961Z,3.20
2023-01-31T07:33:39.599Z,3.03
2023-01-31T07:36:08.488Z,3.07
2023-01-31T07:38:38.344Z,3.07
2023-01-31T07:41:08.601Z,3.23
2023-01-31T07:43:37.145Z,2.63
2023-01-31T07:46:09.007Z,2.47
2023-01-31T07:48:37.712Z,3.20
2023-01-31T07:51:06.340Z,3.73
2023-01-31T07:53:35.720Z,3.93
2023-01-31T07:56:10.215Z,2.97
2023-01-31T07:58:38.647Z,2.67
2023-01-31T08:01:24.980Z,3.00
2023-01-31T08:03:53.617Z,2.37
2023-01-31T08:06:25.214Z,2.77
2023-01-31T08:08:53.620Z,3.17
2023-01-31T08:11:23.636Z,2.90
2023-01-31T08:13:52.120Z,2.80
2023-01-31T08:16:21.278Z,3.00
2023-01-31T08:18:49.729Z,2.50
2023-01-31T08:21:18.157Z,3.40
2023-01-31T08:23:46.955Z,3.23
2023-01-31T08:26:16.411Z,3.37
2023-01-31T08:28:46.376Z,3.37
2023-01-31T08:31:15.336Z,4.23
2023-01-31T08:33:44.085Z,2.77
2023-01-31T08:36:13.319Z,2.83
2023-01-31T08:38:42.262Z,4.43
2023-01-31T08:41:10.636Z,3.23
2023-01-31T08:43:54.371Z,3.20
2023-01-31T08:46:25.685Z,4.23
2023-01-31T08:48:54.119Z,2.53
2023-01-31T08:51:22.913Z,3.20
2023-01-31T08:53:51.619Z,3.93
2023-01-31T08:56:21.360Z,3.83
2023-01-31T08:58:50.133Z,3.67
2023-01-31T09:01:19.357Z,3.27
2023-01-31T09:03:50.523Z,3.77
2023-01-31T09:06:20.473Z,4.00
2023-01-31T09:08:48.867Z,3.93
2023-01-31T09:11:19.536Z,3.37
2023-01-31T09:13:49.671Z,3.70
2023-01-31T09:16:18.283Z,4.33
2023-01-31T09:18:46.779Z,3.57
2023-01-31T09:21:17.802Z,3.93
2023-01-31T09:23:46.274Z,4.23
2023-01-31T09:26:14.834Z,3.87
2023-01-31T09:28:43.613Z,4.17
2023-01-31T09:31:12.813Z,4.47
2023-01-31T09:33:41.318Z,3.87
2023-01-31T09:36:11.095Z,4.97
2023-01-31T09:38:41.697Z,3.50
2023-01-31T09:41:18.451Z,4.23
2023-01-31T09:43:57.019Z,4.27
2023-01-31T09:46:26.243Z,4.27
2023-01-31T09:48:56.564Z,4.43
2023-01-31T09:51:25.053Z,3.40
2023-01-31T09:53:54.828Z,4.07
2023-01-31T09:56:25.490Z,4.03
2023-01-31T09:58:56.824Z,3.47
2023-01-31T10:01:25.615Z,4.23
2023-01-31T10:03:58.418Z,3.17
2023-01-31T10:06:28.147Z,4.33
2023-01-31T10:08:58.903Z,4.20
2023-01-31T10:11:30.732Z,4.60
2023-01-31T10:14:00.389Z,4.27
2023-01-31T10:16:29.227Z,4.37
2023-01-31T10:18:59.011Z,3.83
2023-01-31T10:21:28.057Z,4.23
2023-01-31T10:23:58.152Z,3.73
2023-01-31T10:26:28.008Z,3.93
2023-01-31T10:28:57.180Z,4.70
2023-01-31T10:31:29.272Z,4.00
2023-01-31T10:33:58.772Z,4.07
2023-01-31T10:36:29.039Z,4.40
2023-01-31T10:39:00.510Z,3.80
2023-01-31T10:41:32.021Z,4.03
2023-01-31T10:44:01.944Z,3.80
2023-01-31T10:46:30.767Z,4.30
2023-01-31T10:48:59.324Z,4.53
2023-01-31T10:51:31.466Z,3.37
2023-01-31T10:54:05.934Z,4.73
2023-01-31T10:56:34.887Z,4.27
2023-01-31T10:59:03.621Z,3.57
2023-01-31T11:01:32.037Z,4.17
2023-01-31T11:04:01.017Z,3.60
2023-01-31T11:06:29.471Z,3.47
2023-01-31T11:08:58.838Z,3.60
2023-01-31T11:11:29.056Z,3.27
2023-01-31T11:13:58.282Z,3.43
2023-01-31T11:16:26.830Z,4.27
2023-01-31T11:18:55.274Z,4.17
2023-01-31T11:21:24.485Z,3.10
2023-01-31T11:23:53.265Z,4.07
2023-01-31T11:26:30.581Z,3.30
2023-01-31T11:28:58.968Z,3.87
2023-01-31T11:31:29.807Z,4.53
2023-01-31T11:33:58.504Z,2.87
2023-01-31T11:36:27.031Z,3.30
2023-01-31T11:38:55.534Z,4.20
2023-01-31T11:41:32.171Z,4.23
2023-01-31T11:44:08.384Z,4.27
2023-01-31T11:46:52.947Z,3.70
2023-01-31T11:49:25.486Z,4.33
2023-01-31T11:51:53.887Z,4.43
2023-01-31T11:54:23.378Z,3.27
2023-01-31T11:56:55.650Z,4.37
2023-01-31T11:59:25.063Z,4.53
2023-01-31T12:01:55.579Z,4.10
2023-01-31T12:04:25.280Z,3.63
2023-01-31T12:06:57.741Z,3.73
2023-01-31T12:09:27.025Z,5.30
2023-01-31T12:11:57.214Z,4.40
2023-01-31T12:14:26.272Z,3.93
2023-01-31T12:16:56.107Z,3.77
2023-01-31T12:19:29.004Z,3.93
2023-01-31T12:22:00.112Z,4.50
2023-01-31T12:24:35.072Z,3.80
2023-01-31T12:27:06.092Z,3.90
2023-01-31T12:29:43.876Z,4.40
2023-01-31T12:32:20.149Z,4.67
2023-01-31T12:35:08.797Z,5.03
2023-01-31T12:37:40.980Z,5.07
2023-01-31T12:40:24.764Z,4.37
2023-01-31T12:42:59.135Z,4.40
2023-01-31T12:45:34.360Z,4.00
2023-01-31T12:48:12.117Z,4.87
2023-01-31T12:50:44.525Z,3.87
2023-01-31T12:53:17.225Z,3.97
2023-01-31T12:55:47.880Z,5.40
2023-01-31T12:58:21.921Z,3.80
2023-01-31T13:00:53.590Z,4.10
2023-01-31T13:03:28.943Z,3.83
2023-01-31T13:05:58.251Z,4.43
2023-01-31T13:08:27.423Z,3.67
2023-01-31T13:10:58.140Z,3.93
2023-01-31T13:13:31.848Z,3.30
2023-01-31T13:16:00.925Z,3.57
2023-01-31T13:18:29.594Z,3.37
2023-01-31T13:20:59.020Z,3.40
2023-01-31T13:23:31.640Z,3.57
2023-01-31T13:26:01.536Z,3.23
2023-01-31T13:28:32.216Z,3.37
2023-01-31T13:31:00.905Z,3.80
2023-01-31T13:33:33.179Z,3.13
2023-01-31T13:36:04.148Z,3.83
2023-01-31T13:38:35.358Z,4.10
2023-01-31T13:41:03.754Z,3.10
2023-01-31T13:43:33.514Z,3.10
2023-01-31T13:46:02.949Z,3.50
2023-01-31T13:48:31.713Z,3.00
2023-01-31T13:51:00.999Z,3.93
2023-01-31T13:53:30.213Z,3.20
2023-01-31T13:55:58.606Z,4.30
2023-01-31T13:58:27.494Z,3.60
2023-01-31T14:01:00.569Z,3.17
2023-01-31T14:03:29.392Z,3.53
2023-01-31T14:05:58.871Z,4.00
2023-01-31T14:08:49.918Z,3.93
2023-01-31T14:11:37.251Z,3.50
2023-01-31T14:14:23.003Z,3.93
2023-01-31T14:16:53.547Z,3.87
2023-01-31T14:19:56.727Z,4.13
2023-01-31T14:22:26.118Z,3.03
2023-01-31T14:24:58.610Z,3.63
2023-01-31T14:27:28.429Z,3.60
2023-01-31T14:29:58.740Z,3.80
2023-01-31T14:32:31.145Z,4.07
2023-01-31T14:34:59.607Z,3.60
2023-01-31T14:37:32.866Z,3.67
2023-01-31T14:40:14.205Z,5.20
2023-01-31T14:43:03.365Z,4.23
2023-01-31T14:45:39.243Z,3.63
2023-01-31T14:48:15.163Z,3.80
2023-01-31T14:50:47.342Z,4.03
2023-01-31T14:53:22.552Z,3.87
2023-01-31T14:55:56.759Z,3.83
2023-01-31T14:58:26.206Z,4.30
2023-01-31T15:00:55.076Z,3.23
2023-01-31T15:03:28.343Z,3.80
2023-01-31T15:05:57.810Z,4.13
2023-01-31T15:08:44.781Z,3.43
2023-01-31T15:11:14.173Z,3.90
2023-01-31T15:13:47.424Z,3.53
2023-01-31T15:16:25.585Z,4.07
2023-01-31T15:19:01.722Z,4.27
2023-01-31T15:21:30.990Z,3.83
2023-01-31T15:23:59.581Z,3.70
2023-01-31T15:26:29.124Z,4.87
2023-01-31T15:28:57.811Z,4.27
2023-01-31T15:31:32.172Z,4.17
2023-01-31T15:34:03.533Z,3.90
2023-01-31T15:36:34.169Z,4.07
2023-01-31T15:39:06.683Z,4.10
2023-01-31T15:41:38.606Z,4.00
2023-01-31T15:44:13.616Z,4.53
2023-01-31T15:46:43.589Z,4.23
2023-01-31T15:49:38.046Z,5.33
2023-01-31T15:52:12.455Z,4.43
2023-01-31T15:54:40.959Z,4.23
2023-01-31T15:57:11.876Z,4.37
2023-01-31T15:59:40.398Z,4.53
2023-01-31T16:02:13.376Z,5.17
2023-01-31T16:04:43.153Z,4.47
2023-01-31T16:07:16.644Z,5.37
2023-01-31T16:09:45.002Z,4.23
2023-01-31T16:12:13.443Z,4.73
2023-01-31T16:14:42.150Z,4.43
2023-01-31T16:17:10.600Z,4.53
2023-01-31T16:19:39.011Z,6.27
2023-01-31T16:22:20.183Z,4.77
2023-01-31T16:24:54.203Z,4.33
2023-01-31T16:27:22.624Z,5.00
2023-01-31T16:29:51.620Z,4.80
2023-01-31T16:32:21.526Z,4.83
2023-01-31T16:34:53.769Z,5.73
2023-01-31T16:37:30.267Z,4.37
2023-01-31T16:40:01.243Z,4.80
2023-01-31T16:42:31.216Z,5.40
2023-01-31T16:44:59.682Z,4.30
2023-01-31T16:47:32.814Z,5.27
2023-01-31T16:50:16.151Z,5.13
2023-01-31T16:52:47.814Z,5.20
2023-01-31T16:55:17.475Z,4.80
2023-01-31T16:57:46.965Z,4.90
2023-01-31T17:00:31.593Z,4.73
2023-01-31T17:03:00.539Z,5.40
2023-01-31T17:05:30.088Z,4.73
2023-01-31T17:07:59.960Z,4.80
2023-01-31T17:10:29.074Z,4.47
2023-01-31T17:13:02.452Z,4.00
2023-01-31T17:15:33.047Z,4.37
2023-01-31T17:18:01.672Z,6.30
2023-01-31T17:20:30.141Z,5.20
2023-01-31T17:23:03.381Z,5.07
2023-01-31T17:25:33.207Z,5.13
2023-01-31T17:28:02.787Z,4.63
2023-01-31T17:30:31.478Z,4.37
2023-01-31T17:33:00.141Z,3.93
2023-01-31T17:35:29.141Z,4.13
2023-01-31T17:37:57.743Z,5.13
2023-01-31T17:40:27.622Z,4.67
2023-01-31T17:42:56.724Z,5.27
2023-01-31T17:45:25.203Z,4.90
2023-01-31T17:47:53.611Z,4.40
2023-01-31T17:50:22.736Z,4.00
2023-01-31T17:52:51.249Z,4.07
2023-01-31T17:55:20.257Z,4.13
2023-01-31T17:57:50.284Z,4.30
2023-01-31T18:00:19.607Z,4.80
2023-01-31T18:02:56.856Z,4.53
2023-01-31T18:05:38.401Z,4.33
2023-01-31T18:08:07.717Z,4.70
2023-01-31T18:10:36.237Z,4.47
2023-01-31T18:13:06.140Z,4.10
2023-01-31T18:15:36.269Z,3.90
2023-01-31T18:18:08.600Z,4.00
2023-01-31T18:20:37.435Z,4.00
2023-01-31T18:23:06.115Z,3.83
2023-01-31T18:25:34.575Z,3.93
2023-01-31T18:28:02.967Z,3.57
2023-01-31T18:30:32.901Z,3.63
2023-01-31T18:33:01.319Z,4.77
2023-01-31T18:35:29.793Z,3.53
2023-01-31T18:37:58.324Z,3.50
2023-01-31T18:40:26.833Z,3.47
2023-01-31T18:42:55.314Z,3.90
2023-01-31T18:45:24.245Z,4.43
2023-01-31T18:47:54.390Z,4.13
2023-01-31T18:50:22.876Z,4.27
2023-01-31T18:52:51.397Z,3.67
2023-01-31T18:55:22.712Z,3.43
2023-01-31T18:57:51.312Z,3.63
2023-01-31T19:00:20.673Z,3.23
2023-01-31T19:02:50.965Z,4.13
2023-01-31T19:05:21.716Z,3.37
2023-01-31T19:07:57.222Z,4.20
2023-01-31T19:10:25.936Z,4.70
2023-01-31T19:12:54.596Z,4.33
2023-01-31T19:15:23.541Z,4.73
2023-01-31T19:17:52.687Z,4.93
2023-01-31T19:20:22.762Z,3.93
2023-01-31T19:22:52.211Z,4.63
2023-01-31T19:25:20.928Z,4.03
2023-01-31T19:27:52.242Z,3.47
2023-01-31T19:30:20.862Z,4.10
2023-01-31T19:32:49.327Z,3.93
2023-01-31T19:35:18.087Z,4.80
2023-01-31T19:37:49.307Z,3.87
2023-01-31T19:40:18.050Z,5.27
2023-01-31T19:42:46.640Z,4.40
2023-01-31T19:45:21.948Z,4.87
2023-01-31T19:47:51.383Z,3.53
2023-01-31T19:50:20.590Z,4.70
2023-01-31T19:52:50.513Z,5.03
2023-01-31T19:55:19.457Z,3.90
2023-01-31T19:57:48.486Z,4.00
2023-01-31T20:00:17.220Z,4.40
2023-01-31T20:02:45.698Z,4.77
2023-01-31T20:05:16.409Z,3.87
2023-01-31T20:07:44.950Z,3.90
2023-01-31T20:10:14.978Z,5.63
2023-01-31T20:12:46.682Z,4.87
2023-01-31T20:15:15.539Z,5.10
2023-01-31T20:17:44.196Z,4.23
2023-01-31T20:20:16.425Z,4.17
2023-01-31T20:22:45.207Z,4.27
2023-01-31T20:25:17.849Z,4.80
2023-01-31T20:27:46.392Z,4.60
2023-01-31T20:30:17.640Z,4.23
2023-01-31T20:32:47.216Z,4.40
2023-01-31T20:35:15.713Z,4.20
2023-01-31T20:37:44.193Z,4.30
2023-01-31T20:40:13.320Z,3.57
2023-01-31T20:42:43.570Z,3.93
2023-01-31T20:45:12.676Z,3.53
2023-01-31T20:47:41.166Z,3.40
2023-01-31T20:50:10.526Z,3.77
2023-01-31T20:52:39.131Z,3.50
2023-01-31T20:55:08.491Z,4.07
2023-01-31T20:57:36.932Z,3.73
2023-01-31T21:00:08.711Z,3.80
2023-01-31T21:02:38.522Z,3.93
2023-01-31T21:05:07.546Z,3.80
2023-01-31T21:07:36.077Z,4.13
2023-01-31T21:10:15.249Z,4.27
2023-01-31T21:12:48.219Z,4.47
2023-01-31T21:15:24.380Z,3.70
2023-01-31T21:17:55.856Z,4.03
2023-01-31T21:20:27.267Z,3.80
2023-01-31T21:22:55.811Z,4.43
2023-01-31T21:25:24.231Z,3.13
2023-01-31T21:27:53.241Z,4.13
2023-01-31T21:30:23.543Z,4.23
2023-01-31T21:32:52.275Z,4.73
2023-01-31T21:35:21.815Z,3.47
2023-01-31T21:37:50.275Z,4.00
2023-01-31T21:40:19.255Z,3.43
2023-01-31T21:42:55.989Z,4.30
2023-01-31T21:48:32.539Z,3.73
2023-01-31T21:51:04.685Z,3.87
2023-01-31T21:53:33.248Z,3.43
2023-01-31T21:56:16.356Z,3.90
2023-01-31T21:58:45.580Z,4.50
2023-01-31T22:01:14.722Z,3.47
2023-01-31T22:03:49.555Z,4.37
2023-01-31T22:06:18.605Z,3.50
2023-01-31T22:08:47.080Z,4.20
2023-01-31T22:11:18.994Z,4.03
2023-01-31T22:13:47.927Z,4.03
2023-01-31T22:16:17.424Z,3.20
2023-01-31T22:18:47.352Z,3.93
2023-01-31T22:21:16.223Z,4.47
2023-01-31T22:23:47.252Z,3.50
2023-01-31T22:26:17.746Z,4.20
2023-01-31T22:28:46.264Z,3.70
2023-01-31T22:31:14.715Z,3.23
2023-01-31T22:33:43.773Z,5.33
2023-01-31T22:36:19.893Z,5.30
2023-01-31T22:38:48.400Z,4.83
2023-01-31T22:41:20.449Z,5.33
2023-01-31T22:43:49.351Z,3.60
2023-01-31T22:46:19.819Z,3.60
2023-01-31T22:48:49.442Z,4.23
2023-01-31T22:51:19.910Z,4.47
2023-01-31T22:53:48.584Z,3.13
2023-01-31T22:56:17.810Z,3.60
2023-01-31T22:58:46.347Z,3.93
2023-01-31T23:01:15.501Z,4.17
2023-01-31T23:03:44.396Z,3.77
2023-01-31T23:06:13.151Z,3.60
2023-01-31T23:08:43.057Z,4.23
2023-01-31T23:11:13.085Z,3.93
2023-01-31T23:13:41.643Z,3.57
2023-01-31T23:16:10.314Z,3.73
2023-01-31T23:18:38.846Z,3.77
2023-01-31T23:21:07.686Z,3.97
2023-01-31T23:23:36.280Z,3.60
2023-01-31T23:26:06.758Z,4.83
2023-01-31T23:28:36.266Z,3.80
2023-01-31T23:31:04.849Z,4.10
2023-01-31T23:33:33.495Z,3.80
2023-01-31T23:36:02.186Z,3.50
2023-01-31T23:38:30.548Z,3.47
2023-01-31T23:40:59.058Z,4.67
2023-01-31T23:43:28.995Z,4.37
2023-01-31T23:45:57.446Z,3.77
2023-01-31T23:48:25.956Z,4.33
2023-01-31T23:50:54.440Z,4.00
2023-01-31T23:53:22.971Z,5.57
2023-01-31T23:55:51.477Z,4.30
2023-01-31T23:58:19.990Z,4.03
